createdAt,value
2019-05-01T00:01:50.241Z,8.73
2019-05-01T00:04:35.803Z,9.17
2019-05-01T00:07:10.154Z,7.70
2019-05-01T00:09:39.598Z,8.63
2019-05-01T00:12:09.014Z,8.03
2019-05-01T00:14:38.371Z,8.60
2019-05-01T00:17:07.884Z,9.73
2019-05-01T00:19:37.232Z,9.83
2019-05-01T00:22:06.626Z,9.93
2019-05-01T00:24:36.176Z,12.93
2019-05-01T00:27:05.590Z,13.10
2019-05-01T00:29:34.958Z,13.87
2019-05-01T00:32:04.367Z,12.50
2019-05-01T00:34:33.826Z,14.00
2019-05-01T00:37:03.255Z,14.83
2019-05-01T00:39:32.658Z,13.70
2019-05-01T00:42:02.010Z,13.37
2019-05-01T00:44:31.413Z,12.90
2019-05-01T00:47:00.822Z,13.17
2019-05-01T00:49:30.270Z,14.60
2019-05-01T00:51:59.736Z,11.70
2019-05-01T00:54:30.587Z,11.70
2019-05-01T00:57:09.987Z,11.80
2019-05-01T00:59:48.705Z,13.47
2019-05-01T01:02:33.365Z,12.53
2019-05-01T01:05:02.733Z,11.90
2019-05-01T01:07:32.305Z,14.67
2019-05-01T01:10:01.728Z,14.73
2019-05-01T01:12:31.113Z,13.50
2019-05-01T01:15:00.587Z,15.80
2019-05-01T01:17:29.948Z,16.03
2019-05-01T01:19:59.398Z,14.90
2019-05-01T01:22:28.771Z,14.37
2019-05-01T01:24:58.238Z,16.17
2019-05-01T01:27:27.695Z,16.17
2019-05-01T01:29:57.305Z,14.90
2019-05-01T01:32:26.727Z,16.03
2019-05-01T01:34:56.157Z,15.40
2019-05-01T01:37:25.626Z,15.87
2019-05-01T01:39:55.057Z,17.37
2019-05-01T01:42:24.620Z,17.80
2019-05-01T01:45:21.940Z,18.40
2019-05-01T01:48:11.040Z,20.33
2019-05-01T01:50:40.777Z,19.00
2019-05-01T01:53:10.352Z,19.83
2019-05-01T01:55:39.824Z,20.63
2019-05-01T01:58:09.190Z,20.30
2019-05-01T02:01:09.621Z,20.40
2019-05-01T02:03:38.000Z,22.30
2019-05-01T02:06:07.440Z,23.47
2019-05-01T02:08:36.902Z,20.70
2019-05-01T02:11:06.321Z,21.10
2019-05-01T02:13:35.778Z,20.83
2019-05-01T02:16:05.193Z,21.13
2019-05-01T02:18:34.598Z,22.70
2019-05-01T02:21:04.173Z,23.90
2019-05-01T02:23:33.569Z,22.33
2019-05-01T02:26:03.004Z,21.30
2019-05-01T02:28:50.916Z,23.23
2019-05-01T02:31:29.484Z,23.97
2019-05-01T02:33:59.105Z,24.97
2019-05-01T02:36:29.002Z,24.57
2019-05-01T02:38:58.805Z,22.77
2019-05-01T02:41:32.394Z,23.63
2019-05-01T02:44:03.506Z,24.40
2019-05-01T02:46:33.003Z,25.03
2019-05-01T02:49:06.673Z,25.13
2019-05-01T02:51:36.084Z,24.87
2019-05-01T02:54:05.447Z,24.20
2019-05-01T02:56:58.261Z,22.90
2019-05-01T02:59:27.727Z,23.83
2019-05-01T03:01:57.147Z,25.30
2019-05-01T03:04:26.544Z,25.90
2019-05-01T03:06:56.012Z,25.40
2019-05-01T03:09:25.402Z,24.70
2019-05-01T03:11:54.811Z,27.13
2019-05-01T03:14:24.185Z,25.73
2019-05-01T03:16:53.635Z,25.73
2019-05-01T03:19:41.895Z,27.00
2019-05-01T03:22:30.222Z,26.37
2019-05-01T03:24:59.845Z,28.00
2019-05-01T03:27:29.279Z,25.30
2019-05-01T03:29:58.667Z,27.23
2019-05-01T03:32:28.111Z,28.13
2019-05-01T03:34:57.611Z,25.80
2019-05-01T03:37:27.407Z,26.97
2019-05-01T03:39:57.032Z,26.00
2019-05-01T03:42:26.853Z,27.60
2019-05-01T03:44:56.590Z,27.07
2019-05-01T03:47:26.229Z,25.67
2019-05-01T03:49:56.032Z,28.57
2019-05-01T03:52:25.869Z,27.73
2019-05-01T03:54:55.530Z,27.80
2019-05-01T03:57:25.167Z,28.70
2019-05-01T03:59:54.954Z,28.50
2019-05-01T04:02:38.054Z,26.73
2019-05-01T04:05:07.563Z,26.00
2019-05-01T04:07:37.231Z,26.83
2019-05-01T04:10:07.555Z,26.70
2019-05-01T04:12:37.270Z,30.80
2019-05-01T04:15:07.082Z,25.63
2019-05-01T04:17:45.431Z,24.27
2019-05-01T04:20:15.148Z,25.80
2019-05-01T04:22:44.955Z,26.93
2019-05-01T04:25:14.590Z,25.70
2019-05-01T04:27:46.942Z,26.00
2019-05-01T04:30:23.447Z,25.57
2019-05-01T04:32:54.949Z,26.67
2019-05-01T04:35:29.046Z,26.67
2019-05-01T04:37:59.785Z,26.63
2019-05-01T04:40:29.387Z,25.83
2019-05-01T04:42:59.093Z,25.23
2019-05-01T04:45:29.178Z,26.90
2019-05-01T04:47:58.908Z,25.60
2019-05-01T04:50:28.688Z,24.90
2019-05-01T04:52:58.446Z,25.43
2019-05-01T04:55:28.106Z,26.80
2019-05-01T04:57:57.751Z,26.63
2019-05-01T05:00:27.495Z,28.37
2019-05-01T05:03:05.384Z,25.67
2019-05-01T05:05:35.098Z,27.27
2019-05-01T05:08:04.885Z,25.73
2019-05-01T05:10:34.533Z,26.90
2019-05-01T05:13:13.750Z,24.93
2019-05-01T05:16:05.065Z,25.47
2019-05-01T05:18:34.880Z,26.07
2019-05-01T05:21:04.630Z,27.03
2019-05-01T05:23:34.275Z,26.40
2019-05-01T05:26:04.052Z,26.27
2019-05-01T05:28:33.811Z,25.87
2019-05-01T05:31:03.486Z,27.67
2019-05-01T05:33:35.011Z,27.80
2019-05-01T05:36:05.355Z,24.33
2019-05-01T05:39:03.081Z,25.93
2019-05-01T05:41:32.939Z,27.07
2019-05-01T05:44:02.813Z,26.60
2019-05-01T05:46:32.462Z,26.50
2019-05-01T05:49:02.321Z,28.50
2019-05-01T05:51:52.988Z,26.60
2019-05-01T05:54:48.953Z,26.70
2019-05-01T05:57:33.521Z,27.30
2019-05-01T06:00:14.175Z,28.00
2019-05-01T06:02:56.778Z,27.03
2019-05-01T06:05:37.710Z,29.17
2019-05-01T06:08:12.900Z,25.60
2019-05-01T06:10:58.642Z,26.23
2019-05-01T06:13:44.169Z,30.00
2019-05-01T06:16:32.719Z,29.50
2019-05-01T06:19:24.349Z,27.70
2019-05-01T06:22:16.787Z,28.50
2019-05-01T06:24:49.569Z,26.63
2019-05-01T06:27:19.215Z,29.57
2019-05-01T06:29:48.956Z,32.27
2019-05-01T06:32:18.633Z,33.17
2019-05-01T06:34:48.272Z,29.97
2019-05-01T06:37:20.844Z,31.07
2019-05-01T06:39:49.842Z,29.57
2019-05-01T06:42:20.500Z,29.90
2019-05-01T06:44:55.238Z,27.73
2019-05-01T06:47:33.345Z,29.30
2019-05-01T06:50:10.248Z,28.50
2019-05-01T06:52:40.187Z,29.13
2019-05-01T06:55:09.833Z,32.53
2019-05-01T06:57:43.680Z,31.00
2019-05-01T07:00:15.684Z,31.67
2019-05-01T07:02:45.565Z,32.87
2019-05-01T07:05:16.515Z,30.80
2019-05-01T07:07:48.101Z,31.60
2019-05-01T07:10:29.892Z,31.90
2019-05-01T07:12:49.008Z,30.73
2019-05-01T07:15:22.049Z,31.33
2019-05-01T07:17:49.935Z,30.80
2019-05-01T07:20:51.384Z,30.47
2019-05-01T07:23:19.129Z,31.80
2019-05-01T07:25:48.853Z,29.50
2019-05-01T07:28:18.369Z,31.80
2019-05-01T07:31:06.311Z,29.17
2019-05-01T07:33:35.889Z,32.47
2019-05-01T07:36:06.957Z,31.00
2019-05-01T07:38:38.314Z,29.43
2019-05-01T07:41:08.507Z,30.60
2019-05-01T07:44:12.440Z,29.70
2019-05-01T07:47:10.513Z,28.03
2019-05-01T07:49:54.835Z,30.77
2019-05-01T07:52:24.987Z,31.37
2019-05-01T07:54:55.519Z,29.43
2019-05-01T07:57:25.245Z,29.10
2019-05-01T07:59:58.344Z,28.97
2019-05-01T08:02:31.001Z,30.57
2019-05-01T08:04:57.762Z,31.97
2019-05-01T08:07:27.822Z,31.10
2019-05-01T08:09:58.954Z,29.40
2019-05-01T08:12:28.583Z,27.73
2019-05-01T08:14:58.282Z,29.50
2019-05-01T08:17:29.697Z,27.90
2019-05-01T08:20:20.985Z,26.47
2019-05-01T08:22:50.594Z,29.10
2019-05-01T08:25:20.306Z,25.73
2019-05-01T08:28:08.661Z,29.03
2019-05-01T08:31:05.114Z,25.07
2019-05-01T08:33:57.026Z,25.90
2019-05-01T08:36:26.589Z,24.63
2019-05-01T08:38:56.308Z,25.93
2019-05-01T08:41:27.074Z,24.57
2019-05-01T08:43:57.360Z,23.57
2019-05-01T08:46:50.979Z,22.60
2019-05-01T08:49:42.281Z,22.07
2019-05-01T08:52:12.762Z,21.63
2019-05-01T08:54:40.424Z,22.80
2019-05-01T08:57:10.076Z,23.03
2019-05-01T08:59:39.723Z,24.43
2019-05-01T09:02:09.990Z,22.50
2019-05-01T09:04:39.808Z,22.47
2019-05-01T09:07:09.492Z,24.77
2019-05-01T09:09:39.875Z,24.23
2019-05-01T09:12:11.910Z,22.30
2019-05-01T09:14:41.634Z,22.70
2019-05-01T09:17:11.257Z,22.97
2019-05-01T09:19:40.932Z,24.03
2019-05-01T09:22:10.466Z,24.33
2019-05-01T09:24:40.787Z,25.80
2019-05-01T09:27:31.112Z,23.77
2019-05-01T09:30:04.291Z,22.37
2019-05-01T09:32:33.293Z,24.73
2019-05-01T09:35:15.211Z,23.77
2019-05-01T09:37:34.245Z,22.30
2019-05-01T09:40:08.511Z,21.97
2019-05-01T09:42:35.210Z,22.33
2019-05-01T09:45:04.839Z,20.10
2019-05-01T09:47:34.467Z,22.87
2019-05-01T09:50:04.350Z,23.47
2019-05-01T09:52:47.904Z,21.20
2019-05-01T09:55:36.495Z,22.47
2019-05-01T09:58:06.230Z,22.10
2019-05-01T10:00:35.905Z,21.33
2019-05-01T10:03:05.563Z,19.93
2019-05-01T10:05:37.956Z,18.70
2019-05-01T10:08:06.614Z,18.70
2019-05-01T10:10:37.086Z,18.30
2019-05-01T10:13:06.964Z,17.80
2019-05-01T10:15:36.603Z,16.93
2019-05-01T10:18:06.315Z,18.10
2019-05-01T10:20:36.139Z,15.50
2019-05-01T10:23:07.785Z,12.37
2019-05-01T10:25:42.796Z,11.67
2019-05-01T10:28:17.634Z,10.50
2019-05-01T10:31:11.826Z,11.57
2019-05-01T10:33:43.077Z,11.37
2019-05-01T10:36:26.533Z,9.20
2019-05-01T10:38:56.152Z,9.60
2019-05-01T10:41:25.816Z,13.33
2019-05-01T10:43:55.563Z,11.83
2019-05-01T10:46:25.240Z,13.47
2019-05-01T10:48:57.382Z,11.17
2019-05-01T10:51:26.310Z,12.07
2019-05-01T10:53:55.975Z,11.90
2019-05-01T10:56:25.627Z,11.77
2019-05-01T10:58:55.299Z,11.80
2019-05-01T11:01:32.141Z,11.70
2019-05-01T11:04:01.779Z,9.90
2019-05-01T11:06:31.320Z,9.20
2019-05-01T11:09:00.858Z,10.07
2019-05-01T11:11:30.538Z,8.67
2019-05-01T11:14:00.222Z,8.50
2019-05-01T11:16:29.839Z,8.77
2019-05-01T11:18:59.521Z,8.83
2019-05-01T11:21:29.193Z,8.60
2019-05-01T11:23:58.828Z,8.17
2019-05-01T11:26:28.602Z,7.33
2019-05-01T11:28:58.346Z,8.10
2019-05-01T11:31:35.322Z,7.53
2019-05-01T11:34:23.760Z,7.57
2019-05-01T11:37:27.262Z,8.13
2019-05-01T11:40:03.325Z,8.83
2019-05-01T11:42:32.905Z,9.20
2019-05-01T11:45:02.465Z,8.27
2019-05-01T11:47:32.174Z,8.43
2019-05-01T11:50:01.756Z,8.33
2019-05-01T11:52:31.462Z,9.37
2019-05-01T11:55:00.973Z,8.90
2019-05-01T11:57:30.656Z,9.00
2019-05-01T12:00:00.291Z,7.53
2019-05-01T12:02:29.970Z,8.20
2019-05-01T12:04:59.648Z,7.90
2019-05-01T12:07:29.317Z,8.40
2019-05-01T12:09:58.847Z,7.57
2019-05-01T12:12:30.167Z,6.30
2019-05-01T12:14:59.812Z,6.97
2019-05-01T12:17:34.465Z,7.20
2019-05-01T12:20:04.168Z,5.83
2019-05-01T12:22:33.918Z,6.50
2019-05-01T12:25:03.634Z,8.60
2019-05-01T12:27:33.320Z,6.90
2019-05-01T12:30:02.883Z,7.93
2019-05-01T12:32:32.636Z,7.40
2019-05-01T12:35:02.306Z,7.10
2019-05-01T12:37:36.580Z,5.97
2019-05-01T12:40:06.773Z,6.57
2019-05-01T12:42:36.672Z,7.10
2019-05-01T12:45:07.579Z,6.03
2019-05-01T12:47:49.624Z,5.60
2019-05-01T12:50:19.302Z,5.10
2019-05-01T12:53:20.328Z,5.60
2019-05-01T12:56:15.115Z,5.50
2019-05-01T12:58:45.840Z,5.00
2019-05-01T13:01:15.534Z,4.83
2019-05-01T13:03:45.248Z,5.23
2019-05-01T13:06:14.894Z,5.43
2019-05-01T13:08:44.532Z,6.40
2019-05-01T13:11:14.196Z,6.30
2019-05-01T13:13:43.883Z,6.77
2019-05-01T13:16:13.431Z,5.90
2019-05-01T13:18:43.139Z,5.50
2019-05-01T13:21:12.721Z,5.70
2019-05-01T13:23:42.403Z,5.33
2019-05-01T13:26:35.904Z,5.63
2019-05-01T13:29:30.498Z,5.63
2019-05-01T13:32:27.877Z,5.07
2019-05-01T13:34:57.538Z,5.80
2019-05-01T13:37:27.175Z,5.23
2019-05-01T13:39:56.742Z,4.73
2019-05-01T13:42:26.311Z,5.10
2019-05-01T13:44:56.013Z,5.70
2019-05-01T13:47:25.636Z,5.10
2019-05-01T13:49:55.286Z,5.10
2019-05-01T13:52:24.917Z,5.10
2019-05-01T13:54:54.613Z,4.13
2019-05-01T13:57:24.258Z,4.97
2019-05-01T13:59:53.890Z,5.30
2019-05-01T14:02:23.559Z,4.73
2019-05-01T14:04:53.244Z,4.50
2019-05-01T14:07:22.901Z,4.43
2019-05-01T14:09:52.562Z,4.37
2019-05-01T14:12:22.335Z,4.50
2019-05-01T14:14:51.973Z,4.07
2019-05-01T14:17:21.657Z,4.67
2019-05-01T14:20:00.140Z,4.80
2019-05-01T14:22:52.480Z,4.33
2019-05-01T14:25:22.034Z,4.43
2019-05-01T14:27:51.482Z,4.53
2019-05-01T14:30:21.174Z,4.40
2019-05-01T14:32:51.818Z,4.57
2019-05-01T14:35:21.645Z,5.60
2019-05-01T14:37:51.270Z,4.33
2019-05-01T14:40:20.843Z,4.20
2019-05-01T14:42:50.469Z,4.27
2019-05-01T14:45:20.155Z,5.07
2019-05-01T14:47:49.838Z,6.13
2019-05-01T14:50:19.379Z,4.97
2019-05-01T14:52:49.083Z,4.80
2019-05-01T14:55:18.755Z,5.30
2019-05-01T14:57:48.504Z,6.00
2019-05-01T15:00:18.640Z,5.50
2019-05-01T15:02:48.331Z,5.17
2019-05-01T15:05:18.023Z,5.80
2019-05-01T15:07:47.644Z,5.63
2019-05-01T15:10:17.276Z,5.67
2019-05-01T15:12:48.574Z,5.93
2019-05-01T15:15:29.343Z,4.90
2019-05-01T15:18:03.296Z,6.37
2019-05-01T15:20:32.936Z,5.43
2019-05-01T15:23:02.394Z,5.67
2019-05-01T15:25:32.030Z,5.57
2019-05-01T15:28:01.713Z,6.00
2019-05-01T15:30:31.442Z,6.30
2019-05-01T15:33:01.083Z,5.73
2019-05-01T15:35:30.549Z,5.93
2019-05-01T15:38:00.245Z,5.43
2019-05-01T15:40:38.264Z,5.70
2019-05-01T15:43:25.410Z,5.93
2019-05-01T15:45:55.112Z,5.97
2019-05-01T15:48:24.778Z,5.57
2019-05-01T15:50:54.332Z,5.47
2019-05-01T15:53:23.992Z,6.43
2019-05-01T15:55:53.551Z,5.60
2019-05-01T15:58:23.193Z,5.10
2019-05-01T16:00:52.666Z,5.67
2019-05-01T16:03:22.432Z,6.30
2019-05-01T16:05:52.098Z,5.50
2019-05-01T16:08:22.088Z,6.13
2019-05-01T16:11:02.709Z,6.37
2019-05-01T16:13:33.857Z,5.80
2019-05-01T16:16:05.606Z,6.23
2019-05-01T16:18:36.056Z,6.13
2019-05-01T16:21:06.275Z,6.03
2019-05-01T16:23:36.570Z,5.80
2019-05-01T16:26:06.120Z,6.23
2019-05-01T16:28:36.043Z,7.47
2019-05-01T16:31:05.954Z,5.50
2019-05-01T16:33:35.565Z,6.60
2019-05-01T16:36:05.534Z,6.70
2019-05-01T16:38:50.747Z,7.00
2019-05-01T16:41:20.870Z,6.30
2019-05-01T16:43:50.685Z,7.23
2019-05-01T16:46:20.767Z,7.90
2019-05-01T16:48:50.792Z,6.93
2019-05-01T16:51:22.153Z,8.43
2019-05-01T16:53:52.294Z,9.37
2019-05-01T16:56:22.220Z,8.30
2019-05-01T16:58:52.275Z,9.20
2019-05-01T17:01:38.156Z,8.57
2019-05-01T17:04:12.709Z,7.57
2019-05-01T17:06:48.739Z,8.30
2019-05-01T17:09:37.450Z,7.40
2019-05-01T17:12:10.949Z,8.73
2019-05-01T17:14:40.120Z,8.37
2019-05-01T17:17:13.838Z,8.47
2019-05-01T17:19:43.754Z,8.43
2019-05-01T17:22:14.569Z,8.77
2019-05-01T17:24:45.951Z,8.10
2019-05-01T17:27:15.966Z,7.87
2019-05-01T17:29:45.813Z,8.83
2019-05-01T17:32:17.451Z,7.73
2019-05-01T17:34:47.903Z,8.10
2019-05-01T17:37:17.983Z,8.17
2019-05-01T17:39:48.333Z,8.97
2019-05-01T17:42:18.009Z,8.30
2019-05-01T17:44:48.653Z,9.17
2019-05-01T17:47:22.500Z,8.50
2019-05-01T17:49:50.153Z,9.23
2019-05-01T17:52:20.023Z,9.27
2019-05-01T17:54:49.542Z,8.97
2019-05-01T17:57:19.248Z,8.37
2019-05-01T17:59:50.839Z,9.13
2019-05-01T18:02:30.659Z,8.73
2019-05-01T18:05:17.052Z,8.90
2019-05-01T18:07:46.740Z,8.50
2019-05-01T18:10:16.474Z,8.40
2019-05-01T18:12:46.137Z,9.50
2019-05-01T18:15:15.828Z,9.60
2019-05-01T18:17:45.292Z,9.93
2019-05-01T18:20:14.950Z,8.97
2019-05-01T18:23:08.449Z,8.33
2019-05-01T18:25:51.460Z,7.60
2019-05-01T18:28:31.711Z,8.90
2019-05-01T18:31:01.548Z,9.10
2019-05-01T18:33:31.247Z,9.20
2019-05-01T18:36:00.955Z,9.37
2019-05-01T18:38:47.689Z,8.60
2019-05-01T18:41:20.583Z,8.30
2019-05-01T18:43:50.252Z,8.37
2019-05-01T18:46:19.998Z,8.50
2019-05-01T18:48:49.792Z,8.30
2019-05-01T18:51:19.603Z,8.17
2019-05-01T18:53:50.247Z,7.80
2019-05-01T18:56:19.905Z,9.30
2019-05-01T18:58:49.642Z,8.57
2019-05-01T19:01:19.302Z,8.50
2019-05-01T19:03:49.260Z,7.60
2019-05-01T19:06:19.011Z,8.53
2019-05-01T19:08:48.702Z,8.90
2019-05-01T19:11:18.478Z,9.20
2019-05-01T19:13:48.216Z,9.70
2019-05-01T19:16:17.902Z,10.53
2019-05-01T19:18:47.778Z,11.80
2019-05-01T19:21:19.117Z,13.00
2019-05-01T19:23:48.761Z,12.83
2019-05-01T19:26:19.072Z,14.17
2019-05-01T19:28:48.697Z,14.20
2019-05-01T19:31:21.251Z,14.67
2019-05-01T19:33:49.753Z,16.50
2019-05-01T19:36:19.407Z,14.93
2019-05-01T19:38:49.055Z,16.37
2019-05-01T19:41:18.627Z,15.23
2019-05-01T19:43:48.329Z,17.13
2019-05-01T19:46:18.035Z,18.00
2019-05-01T19:48:50.676Z,17.77
2019-05-01T19:51:23.606Z,17.90
2019-05-01T19:53:51.666Z,18.80
2019-05-01T19:56:22.851Z,19.17
2019-05-01T19:58:52.459Z,20.13
2019-05-01T20:01:22.146Z,19.90
2019-05-01T20:03:51.905Z,20.23
2019-05-01T20:06:21.570Z,20.53
2019-05-01T20:08:51.223Z,21.37
2019-05-01T20:11:20.880Z,21.83
2019-05-01T20:13:50.645Z,20.00
2019-05-01T20:16:21.465Z,21.23
2019-05-01T20:18:51.180Z,22.53
2019-05-01T20:21:21.051Z,21.97
2019-05-01T20:23:50.859Z,21.27
2019-05-01T20:26:21.120Z,22.40
2019-05-01T20:28:50.841Z,22.37
2019-05-01T20:31:22.781Z,23.07
2019-05-01T20:33:51.974Z,21.80
2019-05-01T20:36:21.769Z,22.80
2019-05-01T20:38:51.409Z,23.33
2019-05-01T20:41:21.166Z,21.10
2019-05-01T20:43:50.749Z,19.63
2019-05-01T20:46:21.341Z,21.23
2019-05-01T20:48:55.826Z,20.13
2019-05-01T20:51:23.120Z,19.80
2019-05-01T20:53:52.786Z,21.10
2019-05-01T20:56:40.373Z,21.40
2019-05-01T20:59:10.014Z,19.23
2019-05-01T21:01:39.671Z,19.63
2019-05-01T21:04:28.227Z,17.23
2019-05-01T21:07:21.111Z,18.73
2019-05-01T21:09:56.809Z,18.77
2019-05-01T21:12:22.324Z,19.43
2019-05-01T21:14:51.969Z,17.97
2019-05-01T21:17:21.527Z,17.27
2019-05-01T21:19:51.272Z,17.60
2019-05-01T21:22:20.863Z,17.13
2019-05-01T21:24:50.511Z,17.10
2019-05-01T21:27:20.192Z,19.47
2019-05-01T21:29:49.809Z,17.47
2019-05-01T21:32:26.160Z,17.47
2019-05-01T21:34:50.895Z,19.97
2019-05-01T21:37:20.534Z,19.43
2019-05-01T21:39:50.194Z,19.37
2019-05-01T21:42:19.722Z,19.13
2019-05-01T21:44:49.476Z,18.77
2019-05-01T21:47:19.105Z,19.47
2019-05-01T21:49:48.789Z,18.87
2019-05-01T21:52:23.033Z,19.80
2019-05-01T21:54:50.066Z,17.40
2019-05-01T21:57:21.160Z,19.90
2019-05-01T21:59:50.885Z,19.77
2019-05-01T22:02:20.552Z,20.10
2019-05-01T22:04:50.220Z,22.50
2019-05-01T22:07:23.800Z,21.27
2019-05-01T22:09:51.728Z,21.20
2019-05-01T22:12:21.331Z,21.80
2019-05-01T22:14:57.728Z,20.70
2019-05-01T22:17:45.118Z,20.93
2019-05-01T22:20:16.661Z,21.27
2019-05-01T22:22:53.878Z,21.67
2019-05-01T22:25:27.311Z,21.43
2019-05-01T22:28:19.898Z,23.20
2019-05-01T22:31:09.169Z,20.80
2019-05-01T22:33:39.391Z,21.63
2019-05-01T22:36:09.090Z,20.97
2019-05-01T22:38:38.749Z,23.67
2019-05-01T22:41:11.159Z,23.60
2019-05-01T22:43:40.847Z,22.80
2019-05-01T22:46:17.577Z,25.17
2019-05-01T22:48:47.213Z,24.50
2019-05-01T22:51:22.721Z,28.53
2019-05-01T22:53:55.208Z,27.57
2019-05-01T22:56:27.864Z,28.90
2019-05-01T22:58:57.491Z,29.07
2019-05-01T23:01:27.560Z,28.33
2019-05-01T23:04:07.561Z,28.87
2019-05-01T23:06:41.751Z,30.83
2019-05-01T23:09:08.932Z,31.07
2019-05-01T23:11:41.906Z,31.87
2019-05-01T23:14:11.748Z,32.83
2019-05-01T23:16:48.188Z,31.10
2019-05-01T23:19:18.009Z,31.43
2019-05-01T23:21:50.917Z,31.70
2019-05-01T23:24:19.579Z,30.10
2019-05-01T23:26:51.880Z,31.73
2019-05-01T23:29:21.559Z,35.50
2019-05-01T23:31:51.264Z,32.27
2019-05-01T23:34:25.764Z,32.43
2019-05-01T23:36:52.742Z,34.47
2019-05-01T23:39:22.393Z,36.20
2019-05-01T23:41:52.049Z,35.17
2019-05-01T23:44:21.910Z,35.93
2019-05-01T23:46:51.510Z,36.00
2019-05-01T23:49:21.179Z,34.90
2019-05-01T23:51:50.807Z,38.00
2019-05-01T23:54:20.213Z,37.70
2019-05-01T23:56:50.208Z,38.20
2019-05-01T23:59:20.430Z,39.60
